Time;durP1;ratioP1;P1;durP2;ratioP2;P2;SDS_P1;SDS_P2;PMS_P1;PMS_P2;Temp;Humidity;BMP_temperature;BMP_pressure;BME280_temperature;BME280_humidity;BME280_pressure;Samples;Min_cycle;Max_cycle;Signal;HPM_P1;HPM_P2
2022/11/08 00:02:00;;;;;;;6.03;2.30;;;15.50;74.30;;;;;;2344972;57;21033;-62
2022/11/08 00:04:29;;;;;;;6.12;2.33;;;15.40;74.20;;;;;;2345829;57;21607;-59
2022/11/08 00:15:12;;;;;;;6.35;1.92;;;15.50;74.00;;;;;;2345187;57;21038;-61
2022/11/08 00:17:39;;;;;;;4.07;1.98;;;15.40;74.00;;;;;;2345834;57;21536;-62
2022/11/08 00:20:10;;;;;;;4.43;1.83;;;15.50;74.10;;;;;;2345503;57;21521;-59
2022/11/08 00:22:37;;;;;;;7.15;2.47;;;15.50;74.10;;;;;;2345693;57;21485;-62
2022/11/08 00:25:07;;;;;;;4.47;2.12;;;15.50;74.00;;;;;;2345996;57;21552;-61
2022/11/08 00:27:34;;;;;;;7.47;2.37;;;15.50;74.00;;;;;;2345599;57;21113;-61
2022/11/08 00:30:02;;;;;;;3.72;1.62;;;15.50;74.70;;;;;;2345305;57;21846;-61
2022/11/08 00:32:29;;;;;;;4.55;1.90;;;15.50;73.70;;;;;;2345610;57;21089;-60
2022/11/08 00:34:56;;;;;;;4.62;2.20;;;15.50;73.60;;;;;;2345634;57;21054;-61
2022/11/08 00:37:24;;;;;;;7.22;2.47;;;15.50;73.80;;;;;;2345530;57;21053;-60
2022/11/08 00:39:51;;;;;;;6.68;2.22;;;15.50;73.80;;;;;;2345609;57;21053;-61
2022/11/08 00:42:18;;;;;;;4.12;1.83;;;15.60;73.90;;;;;;2345517;57;21050;-59
2022/11/08 00:44:46;;;;;;;7.03;2.58;;;15.60;73.90;;;;;;2345670;57;21050;-59
2022/11/08 00:47:13;;;;;;;6.53;2.20;;;15.60;73.70;;;;;;2345124;57;21038;-60
2022/11/08 00:49:40;;;;;;;3.30;1.73;;;15.60;73.50;;;;;;2345689;57;21027;-61
2022/11/08 00:52:07;;;;;;;6.57;1.95;;;15.60;73.60;;;;;;2345137;57;21160;-61
2022/11/08 00:54:35;;;;;;;8.40;2.60;;;15.70;73.30;;;;;;2345673;57;21088;-61
2022/11/08 00:57:02;;;;;;;7.95;2.05;;;15.70;73.20;;;;;;2345611;57;21058;-61
2022/11/08 00:59:29;;;;;;;5.72;2.12;;;15.70;73.30;;;;;;2345700;57;21565;-62
2022/11/08 01:01:57;;;;;;;8.27;2.58;;;15.70;73.20;;;;;;2345520;57;21026;-62
2022/11/08 01:04:24;;;;;;;4.87;2.15;;;15.70;73.10;;;;;;2344957;57;21050;-60
2022/11/08 01:06:51;;;;;;;4.93;2.00;;;15.80;73.10;;;;;;2345088;57;21050;-61
2022/11/08 01:09:19;;;;;;;6.75;1.92;;;15.80;72.90;;;;;;2345774;57;21608;-61
2022/11/08 01:11:46;;;;;;;10.98;3.22;;;15.80;73.00;;;;;;2345381;57;21529;-61
2022/11/08 01:14:14;;;;;;;6.43;2.12;;;15.70;72.90;;;;;;2345834;57;21529;-58
2022/11/08 01:16:43;;;;;;;6.03;2.10;;;15.80;72.70;;;;;;2345550;57;21089;-59
2022/11/08 01:19:11;;;;;;;11.02;2.20;;;15.70;72.50;;;;;;2345614;57;21475;-60
2022/11/08 01:24:14;;;;;;;8.77;2.20;;;15.70;72.30;;;;;;2356431;57;22026;-58
2022/11/08 01:26:42;;;;;;;6.20;2.12;;;15.80;72.40;;;;;;2321223;58;21142;-61
2022/11/08 01:29:09;;;;;;;7.00;2.30;;;15.70;72.20;;;;;;2321205;58;21534;-58
2022/11/08 01:31:36;;;;;;;4.40;2.10;;;15.70;72.20;;;;;;2321011;58;21064;-61
2022/11/08 01:34:04;;;;;;;6.22;2.50;;;15.70;72.20;;;;;;2321297;58;21064;-58
2022/11/08 01:36:31;;;;;;;4.60;2.08;;;15.70;72.30;;;;;;2320959;58;21590;-58
2022/11/08 01:38:58;;;;;;;8.00;2.12;;;15.60;72.30;;;;;;2320651;58;21566;-61
2022/11/08 01:41:26;;;;;;;10.25;1.83;;;15.60;72.30;;;;;;2320194;58;21562;-61
2022/11/08 01:43:55;;;;;;;6.03;2.20;;;15.60;72.20;;;;;;2320922;58;21123;-61
2022/11/08 01:49:31;;;;;;;10.35;2.80;;;15.60;72.30;;;;;;2356405;57;22054;-59
2022/11/08 01:52:07;;;;;;;5.62;2.10;;;15.60;72.40;;;;;;2347997;57;21530;-62
2022/11/08 01:54:39;;;;;;;6.95;1.98;;;15.60;72.50;;;;;;2351847;56;21512;-61
2022/11/08 01:57:12;;;;;;;5.87;2.12;;;15.50;72.40;;;;;;2375307;56;21641;-61
2022/11/08 01:59:42;;;;;;;7.05;1.77;;;15.50;72.40;;;;;;2375815;56;21058;-61
2022/11/08 02:02:10;;;;;;;6.28;2.05;;;15.50;72.40;;;;;;2375605;56;21051;-62
2022/11/08 02:04:39;;;;;;;7.95;2.30;;;15.50;72.50;;;;;;2375031;56;21035;-62
2022/11/08 02:07:08;;;;;;;4.70;1.80;;;15.50;72.60;;;;;;2376126;56;21530;-61
2022/11/08 02:09:37;;;;;;;5.40;1.98;;;15.50;72.40;;;;;;2375412;56;21035;-59
2022/11/08 02:12:07;;;;;;;2.95;1.83;;;15.50;72.50;;;;;;2375689;56;21039;-59
2022/11/08 02:14:36;;;;;;;5.87;2.10;;;15.50;72.60;;;;;;2375639;56;21054;-61
2022/11/08 02:17:03;;;;;;;4.25;2.20;;;15.40;72.50;;;;;;2374823;56;21566;-62
2022/11/08 02:19:37;;;;;;;6.55;1.92;;;15.50;73.40;;;;;;2375890;56;21074;-60
2022/11/08 02:22:11;;;;;;;10.50;2.58;;;15.40;72.50;;;;;;2375626;56;21042;-62
2022/11/08 02:24:39;;;;;;;7.22;2.22;;;15.40;72.50;;;;;;2375602;56;22089;-59
2022/11/08 02:27:07;;;;;;;4.35;1.87;;;15.40;72.50;;;;;;2376030;56;21597;-59
2022/11/08 02:29:35;;;;;;;3.25;1.90;;;15.40;72.40;;;;;;2375691;56;21047;-62
2022/11/08 02:32:04;;;;;;;6.82;2.53;;;15.40;72.50;;;;;;2375316;56;21228;-61
2022/11/08 02:34:35;;;;;;;6.60;2.10;;;15.40;72.40;;;;;;2375577;56;21039;-62
2022/11/08 02:37:05;;;;;;;2.55;1.70;;;15.30;72.40;;;;;;2376004;56;21606;-61
2022/11/08 02:39:33;;;;;;;6.97;2.50;;;15.30;72.40;;;;;;2375584;56;21047;-62
2022/11/08 02:42:01;;;;;;;4.82;1.90;;;15.30;72.40;;;;;;2375042;56;21589;-61
2022/11/08 02:44:29;;;;;;;3.95;1.62;;;15.30;72.60;;;;;;2375858;56;21044;-61
2022/11/08 02:46:56;;;;;;;5.05;2.12;;;15.30;72.60;;;;;;2375863;56;22193;-59
2022/11/08 02:49:23;;;;;;;7.18;2.00;;;15.30;72.60;;;;;;2373536;56;21043;-59
2022/11/08 02:51:53;;;;;;;6.75;2.22;;;15.30;72.60;;;;;;2375980;56;21545;-61
2022/11/08 02:54:20;;;;;;;4.97;1.87;;;15.20;72.70;;;;;;2375737;56;21054;-59
2022/11/08 02:56:47;;;;;;;6.60;2.70;;;15.20;72.80;;;;;;2375956;56;21514;-62
2022/11/08 02:59:15;;;;;;;4.28;2.10;;;15.20;72.70;;;;;;2374751;56;21628;-61
2022/11/08 03:01:42;;;;;;;6.62;1.92;;;15.20;72.80;;;;;;2374372;56;21573;-62
2022/11/08 03:04:09;;;;;;;7.10;1.83;;;15.20;72.90;;;;;;2374501;56;21522;-61
2022/11/08 03:06:37;;;;;;;8.90;2.22;;;15.20;72.90;;;;;;2374539;56;21106;-61
2022/11/08 03:09:05;;;;;;;3.35;1.95;;;15.20;73.00;;;;;;2374956;56;21139;-59
2022/11/08 03:11:32;;;;;;;4.28;1.83;;;15.20;73.10;;;;;;2374569;56;21565;-62
2022/11/08 03:14:00;;;;;;;8.68;2.20;;;15.20;73.20;;;;;;2374215;56;21119;-61
2022/11/08 03:16:27;;;;;;;6.85;2.12;;;15.20;73.20;;;;;;2374923;56;21518;-59
2022/11/08 03:18:54;;;;;;;3.85;1.90;;;15.20;73.00;;;;;;2375169;56;21693;-61
2022/11/08 03:21:21;;;;;;;3.83;1.85;;;15.20;73.00;;;;;;2374129;56;21051;-61
2022/11/08 03:23:49;;;;;;;6.30;2.25;;;15.20;73.10;;;;;;2375092;56;21087;-61
2022/11/08 03:26:16;;;;;;;3.08;1.77;;;15.20;73.20;;;;;;2374313;56;21519;-59
2022/11/08 03:28:43;;;;;;;11.80;2.30;;;15.20;73.10;;;;;;2374905;56;21141;-62
2022/11/08 03:31:10;;;;;;;5.87;2.05;;;15.20;73.00;;;;;;2374126;56;21051;-62
2022/11/08 03:33:38;;;;;;;6.45;2.40;;;15.20;73.10;;;;;;2374810;56;21055;-62
2022/11/08 03:36:06;;;;;;;8.02;2.75;;;15.20;73.00;;;;;;2374893;56;21545;-62
2022/11/08 03:38:33;;;;;;;4.53;2.20;;;15.20;73.00;;;;;;2374441;56;21123;-60
2022/11/08 03:41:01;;;;;;;8.05;2.87;;;15.20;73.00;;;;;;2374601;56;21039;-62
2022/11/08 03:43:28;;;;;;;6.70;2.22;;;15.20;72.90;;;;;;2374785;56;21099;-61
2022/11/08 03:45:55;;;;;;;4.75;1.80;;;15.20;72.90;;;;;;2374449;56;21126;-61
2022/11/08 03:48:22;;;;;;;7.65;2.10;;;15.20;72.80;;;;;;2374365;56;21070;-61
2022/11/08 03:50:50;;;;;;;6.78;2.28;;;15.20;72.80;;;;;;2374323;56;21043;-62
2022/11/08 03:53:18;;;;;;;6.40;2.05;;;15.10;72.80;;;;;;2374872;56;21561;-61
2022/11/08 03:55:45;;;;;;;5.47;2.75;;;15.20;72.70;;;;;;2374020;56;21051;-62
2022/11/08 03:58:12;;;;;;;3.42;1.87;;;15.10;72.70;;;;;;2373559;56;21031;-59
2022/11/08 04:00:40;;;;;;;6.53;2.20;;;15.10;72.70;;;;;;2374449;56;21043;-62
2022/11/08 04:03:08;;;;;;;10.02;2.20;;;15.10;72.70;;;;;;2374490;56;21541;-61
2022/11/08 04:05:35;;;;;;;11.05;2.50;;;15.10;72.70;;;;;;2374031;56;21522;-61
2022/11/08 04:08:04;;;;;;;6.22;2.20;;;15.00;72.60;;;;;;2374796;56;21055;-62
2022/11/08 04:10:32;;;;;;;5.03;2.03;;;15.00;72.70;;;;;;2374363;56;21130;-62
2022/11/08 04:15:51;;;;;;;8.07;2.22;;;15.00;72.80;;;;;;2374712;56;21628;-61
2022/11/08 04:21:20;;;;;;;6.35;2.22;;;14.90;72.60;;;;;;2373939;56;21086;-61
2022/11/08 04:23:49;;;;;;;7.60;2.40;;;14.90;72.70;;;;;;2374891;56;21521;-62
2022/11/08 04:26:17;;;;;;;9.35;1.98;;;14.80;72.70;;;;;;2374506;56;21557;-62
2022/11/08 04:28:44;;;;;;;6.57;2.30;;;14.80;72.90;;;;;;2374390;56;21173;-61
2022/11/08 04:31:13;;;;;;;4.90;2.40;;;14.80;73.10;;;;;;2374577;56;21066;-62
2022/11/08 04:33:41;;;;;;;7.22;2.25;;;14.70;73.20;;;;;;2374742;56;21114;-62
2022/11/08 04:36:11;;;;;;;6.07;2.40;;;14.70;73.20;;;;;;2374420;56;21526;-59
2022/11/08 04:38:38;;;;;;;5.82;2.03;;;14.70;73.10;;;;;;2374311;56;21114;-61
2022/11/08 04:41:07;;;;;;;5.72;2.12;;;14.70;73.10;;;;;;2374155;56;21056;-61
2022/11/08 04:43:35;;;;;;;7.53;2.20;;;14.70;73.10;;;;;;2374731;56;21518;-61
2022/11/08 04:46:04;;;;;;;4.20;1.90;;;14.60;73.00;;;;;;2374479;56;21541;-59
2022/11/08 04:48:31;;;;;;;7.80;2.20;;;14.60;73.00;;;;;;2374650;56;21607;-62
2022/11/08 04:51:03;;;;;;;9.55;2.00;;;14.60;73.00;;;;;;2374835;56;21558;-62
2022/11/08 04:53:32;;;;;;;4.28;2.12;;;14.60;73.10;;;;;;2374268;56;21059;-60
2022/11/08 04:56:01;;;;;;;5.20;1.77;;;14.50;73.10;;;;;;2373712;56;21119;-60
2022/11/08 04:58:33;;;;;;;6.95;2.47;;;14.50;73.10;;;;;;2374452;56;21054;-62
2022/11/08 05:01:01;;;;;;;6.47;2.33;;;14.50;73.10;;;;;;2373949;56;21617;-62
2022/11/08 05:03:29;;;;;;;6.20;2.70;;;14.40;73.20;;;;;;2374020;56;21541;-61
2022/11/08 05:06:00;;;;;;;5.43;1.90;;;14.40;73.30;;;;;;2374515;56;21537;-62
2022/11/08 05:08:27;;;;;;;6.50;3.12;;;14.40;73.50;;;;;;2374180;56;21529;-62
2022/11/08 05:11:01;;;;;;;4.65;2.17;;;14.30;73.60;;;;;;2372812;56;21086;-60
2022/11/08 05:13:28;;;;;;;5.87;2.45;;;14.30;73.70;;;;;;2373904;56;21058;-61
2022/11/08 05:16:00;;;;;;;4.75;2.20;;;14.20;73.70;;;;;;2374312;56;21118;-62
2022/11/08 05:18:27;;;;;;;8.15;2.35;;;14.20;74.00;;;;;;2375104;56;21687;-61
2022/11/08 05:23:41;;;;;;;6.18;2.45;;;14.20;74.20;;;;;;2374177;56;21026;-62
2022/11/08 05:26:08;;;;;;;7.82;2.40;;;14.20;74.10;;;;;;2374118;56;21125;-62
2022/11/08 05:28:36;;;;;;;6.65;2.40;;;14.10;74.20;;;;;;2374271;56;22116;-62
2022/11/08 05:31:04;;;;;;;9.32;2.35;;;14.10;74.30;;;;;;2373587;56;21510;-59
2022/11/08 05:33:32;;;;;;;8.50;2.45;;;14.10;74.30;;;;;;2374163;56;21652;-61
2022/11/08 05:36:02;;;;;;;7.37;2.60;;;14.10;74.40;;;;;;2374411;56;21655;-62
2022/11/08 05:38:30;;;;;;;6.15;2.22;;;14.10;74.50;;;;;;2374398;56;21160;-61
2022/11/08 05:41:03;;;;;;;4.72;2.12;;;14.00;74.50;;;;;;2373535;56;21526;-62
2022/11/08 05:43:30;;;;;;;6.80;2.17;;;14.00;74.60;;;;;;2374678;56;21050;-62
2022/11/08 05:45:58;;;;;;;7.00;2.55;;;14.00;74.60;;;;;;2374319;56;21609;-56
2022/11/08 05:48:25;;;;;;;8.02;2.75;;;13.90;74.60;;;;;;2373265;56;21325;-62
2022/11/08 05:50:53;;;;;;;6.60;2.70;;;13.90;74.70;;;;;;2374367;56;21094;-62
2022/11/08 05:53:21;;;;;;;6.12;2.20;;;13.90;74.70;;;;;;2373863;56;21561;-62
2022/11/08 05:55:48;;;;;;;6.00;2.12;;;13.90;74.70;;;;;;2374131;56;21541;-62
2022/11/08 05:58:16;;;;;;;5.03;2.60;;;13.90;74.80;;;;;;2374175;56;21043;-62
2022/11/08 06:00:43;;;;;;;5.72;2.67;;;13.90;74.90;;;;;;2373499;56;22079;-62
2022/11/08 06:03:10;;;;;;;7.93;2.60;;;13.90;74.90;;;;;;2374025;56;21059;-62
2022/11/08 06:05:37;;;;;;;9.18;2.75;;;13.80;74.80;;;;;;2374020;56;21118;-62
2022/11/08 06:08:05;;;;;;;8.23;3.50;;;13.80;74.80;;;;;;2373528;56;21051;-62
2022/11/08 06:10:32;;;;;;;11.43;2.92;;;13.80;74.90;;;;;;2373861;56;21731;-62
2022/11/08 06:13:00;;;;;;;5.05;2.58;;;13.80;74.90;;;;;;2374609;56;21054;-62
2022/11/08 06:15:28;;;;;;;7.10;2.45;;;13.70;75.00;;;;;;2374739;56;21059;-62
2022/11/08 06:17:55;;;;;;;4.47;2.62;;;13.80;75.10;;;;;;2374579;56;21069;-62
2022/11/08 06:20:22;;;;;;;7.75;2.62;;;13.70;75.10;;;;;;2374470;56;21059;-61
2022/11/08 06:22:49;;;;;;;7.18;2.58;;;13.70;75.00;;;;;;2374750;56;21130;-61
2022/11/08 06:25:17;;;;;;;5.90;2.40;;;13.70;75.00;;;;;;2374873;56;21043;-60
2022/11/08 06:27:44;;;;;;;7.47;2.35;;;13.70;75.10;;;;;;2374557;56;21054;-61
2022/11/08 06:30:13;;;;;;;11.70;3.03;;;13.70;75.10;;;;;;2375084;56;21506;-60
2022/11/08 06:32:41;;;;;;;5.97;2.42;;;13.70;75.10;;;;;;2374582;56;21039;-63
2022/11/08 06:35:09;;;;;;;6.07;2.22;;;13.70;75.10;;;;;;2373986;56;21542;-63
2022/11/08 06:37:36;;;;;;;5.57;2.50;;;13.70;75.10;;;;;;2374768;56;21046;-63
2022/11/08 06:40:05;;;;;;;7.90;2.33;;;13.70;75.20;;;;;;2374840;56;21514;-62
2022/11/08 06:42:33;;;;;;;8.43;2.55;;;13.70;75.20;;;;;;2374893;56;21043;-63
2022/11/08 06:45:00;;;;;;;4.28;2.10;;;13.60;75.10;;;;;;2374834;56;21027;-61
2022/11/08 06:47:27;;;;;;;5.00;2.45;;;13.60;75.30;;;;;;2374977;56;21051;-62
2022/11/08 06:49:54;;;;;;;5.00;2.25;;;13.60;75.10;;;;;;2374728;56;21117;-62
2022/11/08 06:52:22;;;;;;;7.10;2.47;;;13.70;75.20;;;;;;2374278;56;21577;-58
2022/11/08 06:54:49;;;;;;;6.20;2.30;;;13.60;75.10;;;;;;2374903;56;22306;-60
2022/11/08 06:57:16;;;;;;;7.18;2.53;;;13.70;75.20;;;;;;2375049;56;21058;-61
2022/11/08 06:59:43;;;;;;;7.22;2.45;;;13.70;75.40;;;;;;2375179;56;21608;-60
2022/11/08 07:02:10;;;;;;;7.25;2.40;;;13.70;75.50;;;;;;2374915;56;21043;-60
2022/11/08 07:04:38;;;;;;;8.75;3.05;;;13.70;75.50;;;;;;2374623;56;21178;-62
2022/11/08 07:07:05;;;;;;;9.63;2.90;;;13.70;75.40;;;;;;2374712;56;21047;-62
2022/11/08 07:09:32;;;;;;;7.93;3.03;;;13.70;75.30;;;;;;2374168;56;21082;-62
2022/11/08 07:11:59;;;;;;;7.78;3.05;;;13.60;75.30;;;;;;2374824;56;21086;-61
2022/11/08 07:14:27;;;;;;;7.05;2.85;;;13.60;75.30;;;;;;2375001;56;21506;-61
2022/11/08 07:16:54;;;;;;;6.40;2.62;;;13.60;76.00;;;;;;2374911;56;21039;-62
2022/11/08 07:19:21;;;;;;;6.45;2.80;;;13.60;75.50;;;;;;2375087;56;21554;-62
2022/11/08 07:21:48;;;;;;;5.70;3.00;;;13.60;75.40;;;;;;2374909;56;21110;-61
2022/11/08 07:24:16;;;;;;;8.95;2.75;;;13.60;75.30;;;;;;2374352;56;21601;-62
2022/11/08 07:26:43;;;;;;;8.45;2.42;;;13.60;75.30;;;;;;2374824;56;21043;-63
2022/11/08 07:29:10;;;;;;;5.43;2.55;;;13.60;75.40;;;;;;2375036;56;21066;-62
2022/11/08 07:31:37;;;;;;;11.32;2.83;;;13.60;75.40;;;;;;2374736;56;21714;-61
2022/11/08 07:34:04;;;;;;;7.37;3.17;;;13.60;75.40;;;;;;2374702;56;21534;-62
2022/11/08 07:36:32;;;;;;;7.90;2.45;;;13.60;75.40;;;;;;2374984;56;21083;-62
2022/11/08 07:41:35;;;;;;;6.25;2.35;;;13.60;75.70;;;;;;2380392;56;22556;-60
2022/11/08 07:44:03;;;;;;;8.35;3.20;;;13.60;75.70;;;;;;2348431;57;21045;-59
2022/11/08 07:46:30;;;;;;;5.75;2.78;;;13.60;75.90;;;;;;2323465;57;21563;-60
2022/11/08 07:48:57;;;;;;;8.70;2.78;;;13.60;75.90;;;;;;2321292;58;21056;-59
2022/11/08 07:51:24;;;;;;;9.73;3.85;;;13.60;76.10;;;;;;2449264;54;21091;-60
2022/11/08 07:53:52;;;;;;;8.20;2.70;;;13.60;76.10;;;;;;2240596;60;21147;-61
2022/11/08 07:56:19;;;;;;;6.35;2.65;;;13.60;76.20;;;;;;2240703;60;21632;-61
2022/11/08 07:58:46;;;;;;;7.85;2.80;;;13.60;76.30;;;;;;2240328;60;21100;-61
2022/11/08 08:01:13;;;;;;;10.55;3.08;;;13.70;76.50;;;;;;2240647;60;21095;-61
2022/11/08 08:03:40;;;;;;;6.62;2.80;;;13.70;76.40;;;;;;2240388;60;21111;-61
2022/11/08 08:06:08;;;;;;;7.53;2.55;;;13.70;76.30;;;;;;2240695;60;21143;-60
2022/11/08 08:08:35;;;;;;;8.95;2.53;;;13.80;76.40;;;;;;2239072;60;21188;-61
2022/11/08 08:11:03;;;;;;;8.65;2.90;;;13.80;76.00;;;;;;2238826;60;21080;-61
2022/11/08 08:16:08;;;;;;;5.62;2.50;;;13.80;76.20;;;;;;2320868;58;22125;-58
2022/11/08 08:18:35;;;;;;;3.03;2.28;;;13.80;76.10;;;;;;2318280;58;21573;-60
2022/11/08 08:21:03;;;;;;;5.70;2.50;;;13.90;76.00;;;;;;2318041;58;21068;-59
2022/11/08 08:23:30;;;;;;;4.70;2.70;;;13.90;76.00;;;;;;2319226;58;21052;-59
2022/11/08 08:26:00;;;;;;;5.90;2.78;;;14.00;75.90;;;;;;2318490;58;21072;-61
2022/11/08 08:28:27;;;;;;;4.62;2.35;;;14.00;75.70;;;;;;2318391;58;21523;-62
2022/11/08 08:30:54;;;;;;;6.28;2.35;;;14.00;75.40;;;;;;2318807;58;21084;-59
2022/11/08 08:33:22;;;;;;;6.12;2.37;;;14.00;75.30;;;;;;2317955;58;21065;-61
2022/11/08 08:35:51;;;;;;;9.32;2.78;;;14.00;74.90;;;;;;2318517;58;21628;-61
2022/11/08 08:38:18;;;;;;;6.93;2.60;;;14.10;74.80;;;;;;2318703;58;21638;-62
2022/11/08 08:40:45;;;;;;;9.18;2.62;;;14.10;74.70;;;;;;2318318;58;21073;-62
2022/11/08 08:43:13;;;;;;;4.72;2.28;;;14.00;74.70;;;;;;2318073;58;21060;-59
2022/11/08 08:45:40;;;;;;;3.30;2.65;;;14.10;74.80;;;;;;2319027;58;21115;-60
2022/11/08 08:48:08;;;;;;;8.27;2.95;;;14.10;74.70;;;;;;2319197;58;22196;-59
2022/11/08 08:50:35;;;;;;;4.90;2.17;;;14.10;74.60;;;;;;2318895;58;21052;-63
2022/11/08 08:53:04;;;;;;;9.43;2.83;;;14.10;74.40;;;;;;2318100;58;21555;-62
2022/11/08 08:55:34;;;;;;;3.03;1.77;;;14.20;74.40;;;;;;2318661;58;21634;-59
2022/11/08 08:58:01;;;;;;;7.12;2.20;;;14.20;74.50;;;;;;2318564;58;21558;-59
2022/11/08 09:00:28;;;;;;;4.70;1.98;;;14.20;74.30;;;;;;2318774;58;21135;-59
2022/11/08 09:02:55;;;;;;;5.50;2.30;;;14.20;74.80;;;;;;2318478;58;21076;-62
2022/11/08 09:05:22;;;;;;;4.15;1.95;;;14.20;74.00;;;;;;2318632;58;21515;-60
2022/11/08 09:07:54;;;;;;;5.30;2.08;;;14.20;73.90;;;;;;2319215;58;21063;-59
2022/11/08 09:10:22;;;;;;;5.90;2.03;;;14.20;74.00;;;;;;2318392;58;21116;-62
2022/11/08 09:12:49;;;;;;;7.47;2.45;;;14.20;74.10;;;;;;2318873;58;21523;-61
2022/11/08 09:15:17;;;;;;;8.05;2.65;;;14.20;73.70;;;;;;2318579;58;21127;-61
2022/11/08 09:17:44;;;;;;;4.70;2.12;;;14.20;73.70;;;;;;2319646;58;21605;-61
2022/11/08 09:20:13;;;;;;;4.18;2.08;;;14.30;73.50;;;;;;2319573;58;21072;-62
2022/11/08 09:22:40;;;;;;;9.80;2.83;;;14.30;74.30;;;;;;2319377;58;21068;-61
2022/11/08 09:27:45;;;;;;;4.70;2.20;;;14.40;73.40;;;;;;2355955;57;22038;-60
2022/11/08 09:30:13;;;;;;;7.40;1.90;;;14.40;73.10;;;;;;2347431;57;21196;-58
2022/11/08 09:32:40;;;;;;;3.92;1.77;;;14.40;73.20;;;;;;2347368;57;21133;-60
2022/11/08 09:35:08;;;;;;;5.50;2.08;;;14.40;73.60;;;;;;2356599;56;21067;-61
2022/11/08 09:37:35;;;;;;;3.22;1.60;;;14.50;73.20;;;;;;2374785;56;21118;-60
2022/11/08 09:40:03;;;;;;;7.03;2.00;;;14.60;73.30;;;;;;2374844;56;21616;-59
2022/11/08 09:42:58;;;;;;;6.53;2.17;;;14.60;73.10;;;;;;2374839;56;21517;-59
2022/11/08 09:45:31;;;;;;;4.65;1.60;;;14.70;73.00;;;;;;2375026;56;21115;-61
2022/11/08 09:48:01;;;;;;;6.82;2.30;;;14.70;72.80;;;;;;2376158;56;21561;-61
2022/11/08 09:50:37;;;;;;;4.40;1.87;;;14.70;72.70;;;;;;2375948;56;21521;-59
2022/11/08 09:53:25;;;;;;;4.45;1.90;;;14.80;72.60;;;;;;2375991;56;21526;-61
2022/11/08 09:55:58;;;;;;;11.88;3.37;;;14.80;72.50;;;;;;2375522;56;21115;-62
2022/11/08 09:58:33;;;;;;;6.75;2.33;;;14.80;72.20;;;;;;2375312;56;21505;-61
2022/11/08 10:01:01;;;;;;;4.95;1.98;;;14.90;72.40;;;;;;2375017;56;21830;-62
2022/11/08 10:03:29;;;;;;;3.28;1.60;;;14.90;72.30;;;;;;2375251;56;21495;-61
2022/11/08 10:06:20;;;;;;;5.75;2.03;;;15.00;71.80;;;;;;2375502;56;21525;-62
2022/11/08 10:08:54;;;;;;;3.28;2.00;;;15.00;72.00;;;;;;2375991;56;21043;-59
2022/11/08 10:11:33;;;;;;;7.85;2.05;;;15.00;71.40;;;;;;2375151;56;21174;-59
2022/11/08 10:14:14;;;;;;;5.05;1.90;;;15.00;71.50;;;;;;2375965;56;21086;-59
2022/11/08 10:16:52;;;;;;;5.28;1.90;;;15.10;71.50;;;;;;2375509;56;21584;-59
2022/11/08 10:19:41;;;;;;;2.85;1.70;;;15.20;71.20;;;;;;2376045;56;21027;-61
2022/11/08 10:22:16;;;;;;;6.00;1.60;;;15.20;71.20;;;;;;2375925;56;21505;-61
2022/11/08 10:24:53;;;;;;;4.40;1.98;;;15.20;71.00;;;;;;2375888;56;21695;-61
2022/11/08 10:27:29;;;;;;;2.85;1.75;;;15.30;70.90;;;;;;2375653;56;21525;-60
2022/11/08 10:30:03;;;;;;;6.18;2.30;;;15.30;70.90;;;;;;2376029;56;21054;-61
2022/11/08 10:32:32;;;;;;;4.50;1.90;;;15.40;70.60;;;;;;2376248;56;21632;-62
2022/11/08 10:35:08;;;;;;;5.60;2.17;;;15.40;70.60;;;;;;2375506;56;21568;-60
2022/11/08 10:37:36;;;;;;;5.55;1.83;;;15.50;70.40;;;;;;2375225;56;21118;-61
2022/11/08 10:40:15;;;;;;;6.35;1.75;;;15.50;69.60;;;;;;2375083;56;21047;-61
2022/11/08 10:42:46;;;;;;;3.42;1.60;;;15.50;69.70;;;;;;2375027;56;22052;-61
2022/11/08 10:45:13;;;;;;;5.43;2.08;;;15.50;69.90;;;;;;2374617;56;21043;-62
2022/11/08 10:47:43;;;;;;;4.90;1.73;;;15.60;69.70;;;;;;2374673;56;21031;-61
2022/11/08 10:50:14;;;;;;;4.37;1.75;;;15.60;69.50;;;;;;2374961;56;21533;-62
2022/11/08 10:52:46;;;;;;;5.22;1.83;;;15.60;69.50;;;;;;2374693;56;21031;-62
2022/11/08 10:55:25;;;;;;;5.25;1.95;;;15.60;69.60;;;;;;2374932;56;21086;-61
2022/11/08 10:57:52;;;;;;;6.53;1.95;;;15.70;69.50;;;;;;2375031;56;21518;-62
2022/11/08 11:00:29;;;;;;;4.97;1.92;;;15.70;69.00;;;;;;2374722;56;22167;-60
2022/11/08 11:02:58;;;;;;;3.70;1.90;;;15.70;68.90;;;;;;2374488;56;21094;-60
2022/11/08 11:05:30;;;;;;;3.05;1.48;;;15.80;68.90;;;;;;2374855;56;21027;-60
2022/11/08 11:08:12;;;;;;;4.15;1.70;;;15.80;68.80;;;;;;2374837;56;21035;-61
2022/11/08 11:10:41;;;;;;;3.50;2.10;;;15.80;68.70;;;;;;2375082;56;21047;-61
2022/11/08 11:13:14;;;;;;;5.45;2.10;;;15.80;68.70;;;;;;2373939;56;21035;-61
2022/11/08 11:15:48;;;;;;;3.20;1.70;;;15.90;68.10;;;;;;2374634;56;21081;-61
2022/11/08 11:18:24;;;;;;;5.82;1.80;;;15.90;68.10;;;;;;2375032;56;21525;-61
2022/11/08 11:21:01;;;;;;;4.12;1.45;;;15.90;68.10;;;;;;2375049;56;21047;-62
2022/11/08 11:23:40;;;;;;;5.03;1.58;;;15.90;67.90;;;;;;2374834;56;21047;-61
2022/11/08 11:26:18;;;;;;;3.80;1.65;;;16.00;68.00;;;;;;2374453;56;21631;-62
2022/11/08 11:29:29;;;;;;;4.07;1.50;;;16.00;67.90;;;;;;2374432;56;21479;-61
2022/11/08 11:31:56;;;;;;;4.35;1.80;;;16.00;67.80;;;;;;2369792;56;21059;-61
2022/11/08 11:34:49;;;;;;;5.28;1.70;;;16.00;67.40;;;;;;2374672;56;21526;-61
2022/11/08 11:37:27;;;;;;;3.05;1.73;;;16.00;67.70;;;;;;2375109;56;21604;-61
2022/11/08 11:40:06;;;;;;;3.15;1.50;;;16.10;67.80;;;;;;2374904;56;21612;-61
2022/11/08 11:42:41;;;;;;;2.50;1.50;;;16.10;67.80;;;;;;2375043;56;21632;-62
2022/11/08 11:45:15;;;;;;;4.60;1.70;;;16.10;67.60;;;;;;2373911;56;21047;-62
2022/11/08 11:47:46;;;;;;;3.10;1.95;;;16.10;67.60;;;;;;2374912;56;21039;-62
2022/11/08 11:50:27;;;;;;;5.60;1.92;;;16.20;67.70;;;;;;2375008;56;21520;-61
2022/11/08 11:52:55;;;;;;;5.70;1.83;;;16.20;67.30;;;;;;2375061;56;21537;-62
2022/11/08 11:55:33;;;;;;;2.65;1.60;;;16.20;67.00;;;;;;2374954;56;21565;-61
2022/11/08 11:58:15;;;;;;;7.30;1.65;;;16.30;67.20;;;;;;2374950;56;21565;-63
2022/11/08 12:00:55;;;;;;;4.45;1.50;;;16.30;67.20;;;;;;2374180;56;21592;-62
2022/11/08 12:03:38;;;;;;;3.83;1.87;;;16.30;67.30;;;;;;2374561;56;21051;-61
2022/11/08 12:06:27;;;;;;;6.10;1.60;;;16.40;67.20;;;;;;2375320;56;21102;-62
2022/11/08 12:09:09;;;;;;;4.57;1.85;;;16.40;67.00;;;;;;2374163;56;21518;-62
2022/11/08 12:11:45;;;;;;;3.65;1.80;;;16.40;67.10;;;;;;2374555;56;21604;-62
2022/11/08 12:14:52;;;;;;;3.20;1.67;;;16.40;66.90;;;;;;2374933;56;21098;-62
2022/11/08 12:17:49;;;;;;;6.30;1.60;;;16.40;67.10;;;;;;2374990;56;21592;-61
2022/11/08 12:20:40;;;;;;;2.97;1.48;;;16.40;67.20;;;;;;2369055;56;21098;-62
2022/11/08 12:23:23;;;;;;;2.62;1.50;;;16.50;67.30;;;;;;2374849;56;21703;-62
2022/11/08 12:25:58;;;;;;;4.78;1.85;;;16.50;67.00;;;;;;2374323;56;21632;-62
2022/11/08 12:28:45;;;;;;;4.45;1.70;;;16.60;67.40;;;;;;2374613;56;21031;-63
2022/11/08 12:31:23;;;;;;;2.47;1.50;;;16.60;67.00;;;;;;2374918;56;21094;-62
2022/11/08 12:34:02;;;;;;;3.53;1.33;;;16.60;66.80;;;;;;2374715;56;21194;-63
2022/11/08 12:36:36;;;;;;;3.25;1.45;;;16.70;66.80;;;;;;2375067;56;21135;-63
2022/11/08 12:39:09;;;;;;;;;;;16.70;66.40;;;;;;2378532;56;21035;-63
2022/11/08 12:41:49;;;;;;;3.08;1.80;;;16.80;66.50;;;;;;2375005;56;20292;-63
2022/11/08 12:44:37;;;;;;;6.43;1.60;;;16.80;65.80;;;;;;2374798;56;21035;-63
2022/11/08 12:47:16;;;;;;;9.60;1.45;;;16.80;65.80;;;;;;2374905;56;21530;-62
2022/11/08 12:49:55;;;;;;;3.70;1.48;;;16.70;65.70;;;;;;2375040;56;21098;-63
2022/11/08 12:52:45;;;;;;;3.53;1.40;;;16.80;65.70;;;;;;2374930;56;21482;-62
2022/11/08 12:55:21;;;;;;;1.73;1.30;;;16.80;65.80;;;;;;2373553;56;21126;-63
2022/11/08 12:57:51;;;;;;;3.60;1.25;;;16.80;65.60;;;;;;2374489;56;21039;-63
2022/11/08 13:00:20;;;;;;;4.35;1.60;;;16.80;65.60;;;;;;2374885;56;21503;-62
2022/11/08 13:02:59;;;;;;;3.25;1.40;;;16.80;65.50;;;;;;2374848;56;21019;-60
2022/11/08 13:05:32;;;;;;;1.98;1.12;;;16.80;65.40;;;;;;2374886;56;21541;-63
2022/11/08 13:08:07;;;;;;;3.62;1.58;;;16.80;65.20;;;;;;2374969;56;21585;-63
2022/11/08 13:10:42;;;;;;;2.55;1.35;;;16.80;65.10;;;;;;2374313;56;21556;-63
2022/11/08 13:13:27;;;;;;;2.70;1.17;;;16.80;65.00;;;;;;2374396;56;21035;-62
2022/11/08 13:16:10;;;;;;;4.30;1.20;;;16.90;65.30;;;;;;2374776;56;21043;-63
2022/11/08 13:18:44;;;;;;;2.58;1.27;;;16.90;65.00;;;;;;2375217;56;21050;-63
2022/11/08 13:21:37;;;;;;;2.75;1.00;;;16.90;64.70;;;;;;2374776;56;21517;-64
2022/11/08 13:24:33;;;;;;;3.35;1.62;;;16.90;64.40;;;;;;2375125;56;21046;-62
2022/11/08 13:27:23;;;;;;;3.97;1.50;;;16.80;64.10;;;;;;2374184;56;21035;-62
2022/11/08 13:29:51;;;;;;;4.28;1.58;;;16.90;64.30;;;;;;2374256;56;21521;-63
2022/11/08 13:32:27;;;;;;;3.70;1.58;;;16.80;64.20;;;;;;2374700;56;21118;-62
2022/11/08 13:35:03;;;;;;;4.20;1.40;;;16.80;64.40;;;;;;2374774;56;21129;-62